Time;durP1;ratioP1;P1;durP2;ratioP2;P2;SDS_P1;SDS_P2;PMS_P1;PMS_P2;Temp;Humidity;BMP_temperature;BMP_pressure;BME280_temperature;BME280_humidity;BME280_pressure;Samples;Min_cycle;Max_cycle;Signal;HPM_P1;HPM_P2
2021/06/23 00:00:46;;;;;;;0.10;0.10;;;;;;;;;;5083932;28;20247;-67
2021/06/23 00:03:12;;;;;;;0.00;0.00;;;;;;;;;;5083591;28;20207;-67
2021/06/23 00:05:38;;;;;;;0.00;0.00;;;;;;;;;;5083844;28;20211;-67
2021/06/23 00:08:05;;;;;;;0.05;0.05;;;;;;;;;;5083956;28;20204;-68
2021/06/23 00:10:31;;;;;;;0.00;0.00;;;;;;;;;;5083593;28;20246;-68
2021/06/23 00:13:04;;;;;;;0.03;0.03;;;;;;;;;;5083582;28;20494;-68
2021/06/23 00:15:30;;;;;;;0.00;0.00;;;;;;;;;;5080441;28;20254;-68
2021/06/23 00:17:57;;;;;;;0.10;0.10;;;;;;;;;;5083543;28;20416;-68
2021/06/23 00:20:24;;;;;;;0.00;0.00;;;;;;;;;;5073615;28;20576;-68
2021/06/23 00:22:51;;;;;;;0.10;0.10;;;;;;;;;;5079990;28;20205;-68
2021/06/23 00:25:17;;;;;;;0.00;0.00;;;;;;;;;;5083183;28;20272;-67
2021/06/23 00:27:43;;;;;;;0.00;0.00;;;;;;;;;;5083607;28;20481;-67
2021/06/23 00:30:12;;;;;;;0.10;0.10;;;;;;;;;;5083310;28;20198;-68
2021/06/23 00:32:40;;;;;;;0.00;0.00;;;;;;;;;;5083286;28;20249;-67
2021/06/23 00:35:07;;;;;;;0.00;0.00;;;;;;;;;;5083418;28;20252;-68
2021/06/23 00:37:33;;;;;;;0.00;0.00;;;;;;;;;;5082803;28;20223;-68
2021/06/23 00:40:01;;;;;;;0.10;0.10;;;;;;;;;;5082922;28;20231;-68
2021/06/23 00:42:27;;;;;;;0.00;0.00;;;;;;;;;;5068786;28;20204;-68
2021/06/23 00:44:54;;;;;;;0.00;0.00;;;;;;;;;;5083095;28;20206;-68
2021/06/23 00:47:24;;;;;;;0.10;0.10;;;;;;;;;;5082982;28;20230;-66
2021/06/23 00:49:51;;;;;;;0.00;0.00;;;;;;;;;;5082571;28;20211;-66
2021/06/23 00:52:17;;;;;;;0.03;0.03;;;;;;;;;;5082849;28;20245;-66
2021/06/23 00:54:47;;;;;;;0.00;0.00;;;;;;;;;;5068992;28;20528;-66
2021/06/23 00:57:14;;;;;;;0.10;0.10;;;;;;;;;;5083028;28;20490;-67
2021/06/23 00:59:40;;;;;;;0.00;0.00;;;;;;;;;;5079281;28;20200;-66
2021/06/23 01:02:06;;;;;;;0.00;0.00;;;;;;;;;;5071394;28;20486;-66
2021/06/23 01:04:34;;;;;;;0.08;0.08;;;;;;;;;;5082788;28;20207;-68
2021/06/23 01:07:01;;;;;;;0.05;0.05;;;;;;;;;;5082623;28;20203;-66
2021/06/23 01:09:27;;;;;;;0.00;0.00;;;;;;;;;;5068523;28;20274;-66
2021/06/23 01:12:03;;;;;;;0.05;0.05;;;;;;;;;;5082318;28;20200;-67
2021/06/23 01:14:32;;;;;;;0.08;0.08;;;;;;;;;;5069526;28;20203;-66
2021/06/23 01:17:00;;;;;;;0.00;0.00;;;;;;;;;;5068360;28;20203;-67
2021/06/23 01:19:26;;;;;;;0.10;0.10;;;;;;;;;;5082523;28;20324;-67
2021/06/23 01:21:54;;;;;;;0.00;0.00;;;;;;;;;;5082352;28;20242;-67
2021/06/23 01:24:20;;;;;;;0.00;0.00;;;;;;;;;;5072721;28;20211;-67
2021/06/23 01:26:47;;;;;;;0.10;0.10;;;;;;;;;;5078033;28;20245;-67
2021/06/23 01:29:13;;;;;;;0.10;0.10;;;;;;;;;;5082164;28;20206;-69
2021/06/23 01:31:39;;;;;;;0.00;0.00;;;;;;;;;;5068382;28;20200;-67
2021/06/23 01:34:05;;;;;;;0.10;0.10;;;;;;;;;;5076463;28;20265;-68
2021/06/23 01:36:32;;;;;;;0.08;0.08;;;;;;;;;;5074155;28;20246;-67
2021/06/23 01:38:59;;;;;;;0.00;0.00;;;;;;;;;;5068157;28;20241;-68
2021/06/23 01:41:26;;;;;;;0.10;0.10;;;;;;;;;;5082237;28;20227;-67
2021/06/23 01:43:52;;;;;;;0.00;0.00;;;;;;;;;;5082017;28;20276;-68
2021/06/23 01:46:18;;;;;;;0.00;0.00;;;;;;;;;;5082483;28;20200;-67
2021/06/23 01:48:44;;;;;;;0.00;0.00;;;;;;;;;;5082275;28;20274;-67
2021/06/23 01:51:11;;;;;;;0.10;0.10;;;;;;;;;;5082645;28;20393;-67
2021/06/23 01:53:39;;;;;;;0.00;0.00;;;;;;;;;;5082625;28;20207;-68
2021/06/23 01:56:07;;;;;;;0.00;0.00;;;;;;;;;;5082816;28;20420;-67
2021/06/23 01:58:37;;;;;;;0.10;0.10;;;;;;;;;;5071066;28;20208;-67
2021/06/23 02:01:06;;;;;;;0.10;0.10;;;;;;;;;;5065785;28;20282;-68
2021/06/23 02:03:50;;;;;;;0.10;0.10;;;;;;;;;;5071845;28;20214;-67
2021/06/23 02:06:21;;;;;;;0.00;0.00;;;;;;;;;;5077159;28;20247;-68
2021/06/23 02:08:52;;;;;;;0.05;0.05;;;;;;;;;;5082578;28;20398;-67
2021/06/23 02:11:31;;;;;;;0.08;0.08;;;;;;;;;;5081996;28;20408;-67
2021/06/23 02:14:13;;;;;;;0.00;0.00;;;;;;;;;;5073059;28;20201;-67
2021/06/23 02:16:41;;;;;;;0.00;0.00;;;;;;;;;;5067230;28;20245;-67
2021/06/23 02:19:07;;;;;;;0.10;0.10;;;;;;;;;;5085627;28;20211;-67
2021/06/23 02:21:37;;;;;;;0.10;0.10;;;;;;;;;;5085711;28;20223;-67
2021/06/23 02:24:04;;;;;;;0.00;0.00;;;;;;;;;;5085835;28;20274;-67
2021/06/23 02:26:31;;;;;;;0.00;0.00;;;;;;;;;;5085860;28;20223;-67
2021/06/23 02:28:58;;;;;;;0.00;0.00;;;;;;;;;;5085643;28;20203;-67
2021/06/23 02:31:26;;;;;;;0.03;0.03;;;;;;;;;;5078873;28;20197;-68
2021/06/23 02:33:54;;;;;;;0.00;0.00;;;;;;;;;;5083797;28;20200;-67
2021/06/23 02:36:20;;;;;;;0.08;0.08;;;;;;;;;;5085443;28;20484;-68
2021/06/23 02:38:46;;;;;;;0.10;0.10;;;;;;;;;;5085472;28;20241;-68
2021/06/23 02:41:12;;;;;;;0.05;0.05;;;;;;;;;;5085455;28;20216;-68
2021/06/23 02:43:40;;;;;;;0.03;0.03;;;;;;;;;;5084680;28;20205;-68
2021/06/23 02:46:06;;;;;;;0.08;0.08;;;;;;;;;;5065568;28;20289;-68
2021/06/23 02:48:33;;;;;;;0.00;0.00;;;;;;;;;;5077979;28;20204;-68
2021/06/23 02:51:00;;;;;;;0.10;0.10;;;;;;;;;;5085503;28;20211;-68
2021/06/23 02:53:27;;;;;;;0.10;0.10;;;;;;;;;;5085229;28;20211;-68
2021/06/23 02:55:55;;;;;;;0.00;0.00;;;;;;;;;;5085507;28;20320;-68
2021/06/23 02:58:22;;;;;;;0.10;0.10;;;;;;;;;;5085589;28;20328;-68
2021/06/23 03:00:50;;;;;;;0.00;0.00;;;;;;;;;;5083908;28;20256;-68
2021/06/23 03:03:16;;;;;;;0.10;0.10;;;;;;;;;;5073399;28;20227;-67
2021/06/23 03:05:43;;;;;;;0.05;0.05;;;;;;;;;;5085241;28;20249;-67
2021/06/23 03:08:09;;;;;;;0.08;0.08;;;;;;;;;;5065368;28;20222;-68
2021/06/23 03:10:35;;;;;;;0.10;0.10;;;;;;;;;;5065827;28;20258;-67
2021/06/23 03:13:02;;;;;;;0.68;0.68;;;;;;;;;;5069430;28;20201;-67
2021/06/23 03:15:28;;;;;;;0.00;0.00;;;;;;;;;;5084792;28;20506;-67
2021/06/23 03:17:56;;;;;;;0.08;0.08;;;;;;;;;;5084581;28;20212;-68
2021/06/23 03:20:22;;;;;;;0.08;0.08;;;;;;;;;;5084929;28;20204;-68
2021/06/23 03:22:49;;;;;;;0.10;0.10;;;;;;;;;;5084454;28;20552;-68
2021/06/23 03:25:15;;;;;;;0.10;0.10;;;;;;;;;;5083655;28;20223;-67
2021/06/23 03:27:41;;;;;;;0.10;0.10;;;;;;;;;;5084709;28;20208;-67
2021/06/23 03:30:08;;;;;;;0.00;0.00;;;;;;;;;;5085028;28;20207;-67
2021/06/23 03:32:34;;;;;;;0.10;0.10;;;;;;;;;;5085308;28;20201;-67
2021/06/23 03:35:02;;;;;;;0.05;0.05;;;;;;;;;;5085100;28;20406;-67
2021/06/23 03:37:28;;;;;;;0.00;0.00;;;;;;;;;;5070143;28;20251;-67
2021/06/23 03:39:54;;;;;;;0.00;0.00;;;;;;;;;;5084526;28;20258;-67
2021/06/23 03:42:21;;;;;;;0.00;0.00;;;;;;;;;;5084474;28;20273;-67
2021/06/23 03:44:48;;;;;;;0.03;0.03;;;;;;;;;;5084262;28;20199;-67
2021/06/23 03:47:14;;;;;;;0.10;0.10;;;;;;;;;;5084485;28;20203;-68
2021/06/23 03:49:40;;;;;;;0.10;0.10;;;;;;;;;;5078761;28;20209;-67
2021/06/23 03:52:08;;;;;;;0.10;0.10;;;;;;;;;;5076093;28;20230;-67
2021/06/23 03:54:34;;;;;;;0.10;0.10;;;;;;;;;;5083848;28;20241;-67
2021/06/23 03:57:00;;;;;;;0.10;0.10;;;;;;;;;;5084031;28;20208;-67
2021/06/23 03:59:27;;;;;;;0.10;0.10;;;;;;;;;;5081681;28;20247;-67
2021/06/23 04:01:53;;;;;;;0.22;0.22;;;;;;;;;;5071177;28;20230;-67
2021/06/23 04:04:19;;;;;;;0.00;0.00;;;;;;;;;;5083918;28;20350;-68
2021/06/23 04:06:46;;;;;;;0.00;0.00;;;;;;;;;;5083991;28;20206;-67
2021/06/23 04:09:13;;;;;;;0.00;0.00;;;;;;;;;;5083999;28;20447;-67
2021/06/23 04:11:39;;;;;;;0.10;0.10;;;;;;;;;;5083898;28;20291;-67
2021/06/23 04:14:06;;;;;;;0.00;0.00;;;;;;;;;;5083847;28;20215;-68
2021/06/23 04:16:32;;;;;;;0.03;0.03;;;;;;;;;;5083837;28;20209;-68
2021/06/23 04:18:59;;;;;;;0.10;0.10;;;;;;;;;;5083893;28;20241;-68
2021/06/23 04:21:25;;;;;;;0.05;0.05;;;;;;;;;;5084008;28;20223;-68
2021/06/23 04:23:51;;;;;;;0.00;0.00;;;;;;;;;;5083586;28;20208;-69
2021/06/23 04:26:19;;;;;;;0.10;0.10;;;;;;;;;;5082227;28;20226;-68
2021/06/23 04:28:45;;;;;;;0.10;0.10;;;;;;;;;;5077074;28;20229;-68
2021/06/23 04:31:11;;;;;;;0.03;0.03;;;;;;;;;;5077715;28;20268;-68
2021/06/23 04:33:37;;;;;;;0.10;0.10;;;;;;;;;;5075185;28;20204;-68
2021/06/23 04:36:04;;;;;;;0.07;0.07;;;;;;;;;;5077365;28;20199;-68
2021/06/23 04:38:30;;;;;;;0.10;0.10;;;;;;;;;;5072051;28;20206;-68
2021/06/23 04:40:57;;;;;;;0.10;0.10;;;;;;;;;;5074558;28;20224;-68
2021/06/23 04:43:24;;;;;;;0.00;0.00;;;;;;;;;;5079856;28;20254;-68
2021/06/23 04:45:51;;;;;;;0.10;0.10;;;;;;;;;;5075407;28;20213;-69
2021/06/23 04:48:17;;;;;;;0.00;0.00;;;;;;;;;;5082966;28;20204;-68
2021/06/23 04:50:43;;;;;;;0.10;0.10;;;;;;;;;;5075692;28;20200;-69
2021/06/23 04:53:10;;;;;;;0.08;0.08;;;;;;;;;;5082818;28;20203;-68
2021/06/23 04:55:36;;;;;;;0.00;0.00;;;;;;;;;;5075018;28;20380;-68
2021/06/23 04:58:02;;;;;;;0.00;0.00;;;;;;;;;;5074520;28;20487;-67
2021/06/23 05:00:30;;;;;;;0.10;0.10;;;;;;;;;;5074365;28;20204;-67
2021/06/23 05:02:57;;;;;;;0.10;0.10;;;;;;;;;;5078551;28;20519;-67
2021/06/23 05:05:23;;;;;;;0.00;0.00;;;;;;;;;;5074407;28;20240;-67
2021/06/23 05:07:52;;;;;;;0.00;0.00;;;;;;;;;;5080908;28;20204;-67
2021/06/23 05:10:18;;;;;;;0.10;0.10;;;;;;;;;;5076987;28;20212;-67
2021/06/23 05:12:44;;;;;;;0.00;0.00;;;;;;;;;;5082072;28;20198;-67
2021/06/23 05:15:11;;;;;;;0.10;0.10;;;;;;;;;;5079670;28;20212;-66
2021/06/23 05:17:39;;;;;;;0.00;0.00;;;;;;;;;;5081844;28;20200;-67
2021/06/23 05:20:06;;;;;;;0.00;0.00;;;;;;;;;;5078794;28;20483;-67
2021/06/23 05:22:32;;;;;;;0.00;0.00;;;;;;;;;;5076338;28;20546;-67
2021/06/23 05:24:59;;;;;;;0.00;0.00;;;;;;;;;;5071058;28;20239;-67
2021/06/23 05:27:25;;;;;;;0.00;0.00;;;;;;;;;;5072090;28;20458;-67
2021/06/23 05:29:51;;;;;;;0.00;0.00;;;;;;;;;;5072788;28;20218;-67
2021/06/23 05:32:17;;;;;;;0.00;0.00;;;;;;;;;;5082050;28;20202;-67
2021/06/23 05:34:45;;;;;;;0.00;0.00;;;;;;;;;;5076195;28;20196;-69
2021/06/23 05:37:11;;;;;;;0.10;0.10;;;;;;;;;;5074236;28;20444;-67
2021/06/23 05:39:37;;;;;;;0.10;0.10;;;;;;;;;;5076633;28;20250;-67
2021/06/23 05:42:04;;;;;;;0.10;0.10;;;;;;;;;;5071230;28;20447;-68
2021/06/23 05:44:30;;;;;;;0.10;0.10;;;;;;;;;;5077147;28;20553;-68
2021/06/23 05:46:57;;;;;;;0.00;0.00;;;;;;;;;;5073557;28;20258;-68
2021/06/23 05:49:23;;;;;;;0.00;0.00;;;;;;;;;;5081433;28;20210;-68
2021/06/23 05:51:51;;;;;;;0.10;0.10;;;;;;;;;;5074558;28;20253;-68
2021/06/23 05:54:17;;;;;;;0.00;0.00;;;;;;;;;;5082689;28;20263;-67
2021/06/23 05:56:43;;;;;;;0.00;0.00;;;;;;;;;;5079819;28;20249;-68
2021/06/23 05:59:10;;;;;;;0.10;0.10;;;;;;;;;;5076994;28;20197;-67
2021/06/23 06:01:36;;;;;;;0.03;0.03;;;;;;;;;;5074373;28;20235;-67
2021/06/23 06:04:02;;;;;;;0.08;0.08;;;;;;;;;;5070608;28;20204;-67
2021/06/23 06:06:29;;;;;;;0.00;0.00;;;;;;;;;;5079362;28;20247;-67
2021/06/23 06:08:57;;;;;;;0.00;0.00;;;;;;;;;;5079884;28;20277;-67
2021/06/23 06:11:23;;;;;;;0.10;0.10;;;;;;;;;;5074709;28;20212;-67
2021/06/23 06:13:49;;;;;;;0.00;0.00;;;;;;;;;;5079566;28;20205;-68
2021/06/23 06:16:15;;;;;;;0.00;0.00;;;;;;;;;;5082947;28;20244;-68
2021/06/23 06:18:44;;;;;;;0.03;0.03;;;;;;;;;;5077331;28;20299;-68
2021/06/23 06:21:11;;;;;;;0.00;0.00;;;;;;;;;;5076474;28;20272;-67
2021/06/23 06:23:37;;;;;;;0.00;0.00;;;;;;;;;;5072397;28;20219;-69
2021/06/23 06:26:05;;;;;;;0.00;0.00;;;;;;;;;;5083639;28;20227;-69
2021/06/23 06:28:31;;;;;;;0.10;0.10;;;;;;;;;;5085787;28;20232;-70
2021/06/23 06:30:57;;;;;;;0.10;0.10;;;;;;;;;;5080634;28;20223;-69
2021/06/23 06:33:23;;;;;;;0.00;0.00;;;;;;;;;;5073794;28;20268;-69
2021/06/23 06:35:50;;;;;;;0.00;0.00;;;;;;;;;;5083502;28;20202;-69
2021/06/23 06:38:16;;;;;;;0.00;0.00;;;;;;;;;;5076449;28;20212;-68
2021/06/23 06:40:42;;;;;;;0.03;0.03;;;;;;;;;;5079531;28;20252;-70
2021/06/23 06:43:11;;;;;;;0.10;0.10;;;;;;;;;;5065403;28;20226;-70
2021/06/23 06:45:37;;;;;;;0.10;0.10;;;;;;;;;;5076465;28;20238;-68
2021/06/23 06:48:03;;;;;;;0.08;0.08;;;;;;;;;;5077654;28;20383;-67
2021/06/23 06:50:30;;;;;;;0.00;0.00;;;;;;;;;;5085306;28;20257;-67
2021/06/23 06:52:56;;;;;;;0.03;0.03;;;;;;;;;;5085724;28;20238;-69
2021/06/23 06:55:22;;;;;;;0.00;0.00;;;;;;;;;;5085387;28;20553;-68
2021/06/23 06:57:49;;;;;;;0.00;0.00;;;;;;;;;;5071373;28;20239;-68
2021/06/23 07:00:17;;;;;;;0.03;0.03;;;;;;;;;;5073433;28;20251;-67
2021/06/23 07:02:44;;;;;;;0.00;0.00;;;;;;;;;;5071313;28;20272;-69
2021/06/23 07:05:10;;;;;;;0.00;0.00;;;;;;;;;;5074982;28;20387;-68
2021/06/23 07:07:36;;;;;;;0.10;0.10;;;;;;;;;;5080555;28;20497;-68
2021/06/23 07:10:03;;;;;;;0.00;0.00;;;;;;;;;;5079111;28;20218;-67
2021/06/23 07:12:29;;;;;;;0.03;0.03;;;;;;;;;;5072372;28;20382;-68
2021/06/23 07:14:56;;;;;;;0.00;0.00;;;;;;;;;;5079089;28;20474;-68
2021/06/23 07:17:23;;;;;;;0.10;0.10;;;;;;;;;;5084836;28;20207;-67
2021/06/23 07:19:49;;;;;;;0.00;0.00;;;;;;;;;;5080722;28;20209;-68
2021/06/23 07:22:16;;;;;;;0.10;0.10;;;;;;;;;;5079247;28;20291;-68
2021/06/23 07:24:42;;;;;;;0.00;0.00;;;;;;;;;;5070135;28;20229;-67
2021/06/23 07:27:08;;;;;;;0.10;0.10;;;;;;;;;;5079011;28;20399;-67
2021/06/23 07:29:35;;;;;;;0.00;0.00;;;;;;;;;;5084662;28;20495;-71
2021/06/23 07:32:03;;;;;;;0.00;0.00;;;;;;;;;;5082599;28;20268;-73
2021/06/23 07:37:14;;;;;;;0.00;0.00;;;;;;;;;;5084191;28;20244;-73
2021/06/23 07:39:40;;;;;;;0.10;0.10;;;;;;;;;;5079183;28;20272;-73
2021/06/23 07:42:08;;;;;;;0.00;0.00;;;;;;;;;;5084872;28;20413;-73
2021/06/23 07:44:37;;;;;;;0.10;0.10;;;;;;;;;;5079427;28;20202;-73
2021/06/23 07:47:06;;;;;;;0.10;0.10;;;;;;;;;;5079617;28;20308;-73
2021/06/23 07:49:36;;;;;;;0.00;0.00;;;;;;;;;;5070285;28;20206;-73
2021/06/23 07:52:06;;;;;;;0.00;0.00;;;;;;;;;;5084578;28;20214;-72
2021/06/23 07:54:51;;;;;;;0.05;0.05;;;;;;;;;;5079148;28;20196;-74
2021/06/23 08:08:26;;;;;;;0.08;0.08;;;;;;;;;;5071624;28;20204;-77
2021/06/23 08:10:54;;;;;;;0.00;0.00;;;;;;;;;;5083781;28;20217;-77
2021/06/23 08:13:21;;;;;;;0.00;0.00;;;;;;;;;;5072522;28;20257;-77
2021/06/23 08:15:48;;;;;;;0.00;0.00;;;;;;;;;;5076380;28;20286;-78
2021/06/23 08:18:15;;;;;;;0.00;0.00;;;;;;;;;;5082636;28;20203;-76
2021/06/23 08:20:43;;;;;;;0.00;0.00;;;;;;;;;;5070407;28;20239;-77
2021/06/23 08:23:10;;;;;;;0.00;0.00;;;;;;;;;;5068337;28;20238;-73
2021/06/23 08:25:36;;;;;;;0.00;0.00;;;;;;;;;;5084109;28;20311;-72
2021/06/23 08:28:03;;;;;;;0.00;0.00;;;;;;;;;;5084319;28;20271;-73
2021/06/23 08:30:29;;;;;;;0.00;0.00;;;;;;;;;;5084329;28;20498;-73
2021/06/23 08:32:57;;;;;;;0.00;0.00;;;;;;;;;;5084593;28;20220;-73
2021/06/23 08:35:24;;;;;;;0.05;0.05;;;;;;;;;;5069640;28;20289;-72
2021/06/23 08:37:52;;;;;;;0.08;0.08;;;;;;;;;;5085046;28;20208;-74
2021/06/23 08:40:19;;;;;;;0.00;0.00;;;;;;;;;;5070795;28;20213;-72
2021/06/23 08:42:48;;;;;;;0.00;0.00;;;;;;;;;;5075957;28;20305;-73
2021/06/23 08:45:15;;;;;;;0.10;0.10;;;;;;;;;;5079337;28;20205;-73
2021/06/23 08:47:42;;;;;;;0.08;0.08;;;;;;;;;;5068979;28;20562;-72
2021/06/23 08:50:09;;;;;;;0.10;0.10;;;;;;;;;;5071524;28;20429;-73
2021/06/23 08:52:35;;;;;;;0.05;0.05;;;;;;;;;;5073060;28;20334;-72
2021/06/23 08:55:03;;;;;;;0.00;0.00;;;;;;;;;;5063869;28;20250;-72
2021/06/23 08:57:30;;;;;;;0.10;0.10;;;;;;;;;;5078911;28;20210;-73
2021/06/23 08:59:57;;;;;;;0.00;0.00;;;;;;;;;;5069438;28;20226;-68
2021/06/23 09:02:23;;;;;;;0.00;0.00;;;;;;;;;;5073909;28;20269;-69
2021/06/23 09:04:56;;;;;;;0.00;0.00;;;;;;;;;;5078915;28;20217;-69
2021/06/23 09:07:36;;;;;;;0.00;0.00;;;;;;;;;;5071967;28;20212;-68
2021/06/23 09:10:06;;;;;;;0.00;0.00;;;;;;;;;;5074975;28;20404;-75
2021/06/23 09:12:32;;;;;;;0.00;0.00;;;;;;;;;;5072542;28;20203;-76
2021/06/23 09:15:00;;;;;;;0.00;0.00;;;;;;;;;;5071217;28;20453;-75
2021/06/23 09:17:26;;;;;;;0.00;0.00;;;;;;;;;;5079264;28;20207;-75
2021/06/23 09:19:53;;;;;;;0.00;0.00;;;;;;;;;;5080048;28;20435;-76
2021/06/23 09:22:31;;;;;;;0.00;0.00;;;;;;;;;;5077961;28;20213;-77
2021/06/23 09:24:58;;;;;;;0.00;0.00;;;;;;;;;;5079474;28;20557;-76
2021/06/23 09:27:27;;;;;;;0.00;0.00;;;;;;;;;;5079093;28;20250;-77
2021/06/23 09:29:53;;;;;;;0.00;0.00;;;;;;;;;;5078043;28;20200;-75
2021/06/23 09:32:20;;;;;;;0.00;0.00;;;;;;;;;;5077132;28;20268;-75
2021/06/23 09:34:47;;;;;;;0.00;0.00;;;;;;;;;;5074152;28;20478;-76
2021/06/23 09:37:24;;;;;;;0.00;0.00;;;;;;;;;;5070684;28;20230;-76
2021/06/23 09:39:51;;;;;;;0.10;0.10;;;;;;;;;;5072284;28;20209;-78
2021/06/23 09:42:18;;;;;;;0.00;0.00;;;;;;;;;;5077222;28;20228;-76
2021/06/23 09:44:47;;;;;;;0.05;0.05;;;;;;;;;;5071306;28;20272;-77
2021/06/23 09:47:13;;;;;;;0.25;0.25;;;;;;;;;;5069639;28;20211;-77
2021/06/23 09:49:43;;;;;;;0.00;0.00;;;;;;;;;;5074787;28;20203;-75
2021/06/23 09:52:10;;;;;;;0.08;0.08;;;;;;;;;;5073036;28;20201;-74
2021/06/23 09:54:48;;;;;;;0.00;0.00;;;;;;;;;;5074404;28;20204;-71
2021/06/23 09:57:15;;;;;;;0.00;0.00;;;;;;;;;;5076202;28;20416;-71
2021/06/23 09:59:44;;;;;;;0.00;0.00;;;;;;;;;;5078433;28;20213;-70
2021/06/23 10:02:22;;;;;;;0.10;0.10;;;;;;;;;;5068341;28;20210;-70
2021/06/23 10:04:48;;;;;;;0.00;0.00;;;;;;;;;;5077150;28;20206;-73
2021/06/23 10:07:35;;;;;;;0.00;0.00;;;;;;;;;;5076399;28;20458;-71
2021/06/23 10:10:02;;;;;;;0.00;0.00;;;;;;;;;;5073432;28;20217;-75
2021/06/23 10:12:29;;;;;;;0.00;0.00;;;;;;;;;;5075012;28;20246;-71
2021/06/23 10:14:55;;;;;;;0.00;0.00;;;;;;;;;;5077384;28;20249;-70
2021/06/23 10:17:23;;;;;;;0.00;0.00;;;;;;;;;;5075871;28;20211;-70
2021/06/23 10:19:49;;;;;;;0.00;0.00;;;;;;;;;;5068943;28;20305;-71
2021/06/23 10:22:16;;;;;;;0.10;0.10;;;;;;;;;;5076097;28;20213;-72
2021/06/23 10:24:43;;;;;;;0.10;0.10;;;;;;;;;;5075614;28;20241;-71
2021/06/23 10:27:11;;;;;;;0.00;0.00;;;;;;;;;;5077584;28;20473;-69
2021/06/23 10:29:39;;;;;;;0.00;0.00;;;;;;;;;;5079890;28;20261;-69
2021/06/23 10:32:07;;;;;;;0.00;0.00;;;;;;;;;;5075202;28;20202;-70
2021/06/23 10:34:33;;;;;;;0.00;0.00;;;;;;;;;;5079568;28;20411;-71
2021/06/23 10:37:00;;;;;;;0.00;0.00;;;;;;;;;;5082634;28;20511;-70
2021/06/23 10:39:29;;;;;;;0.00;0.00;;;;;;;;;;5083236;28;20270;-72
2021/06/23 10:41:58;;;;;;;0.08;0.08;;;;;;;;;;5080644;28;20198;-71
2021/06/23 10:44:26;;;;;;;0.00;0.00;;;;;;;;;;5071644;28;20221;-70
2021/06/23 10:46:54;;;;;;;0.00;0.00;;;;;;;;;;5078343;28;20228;-72
2021/06/23 10:49:40;;;;;;;0.00;0.00;;;;;;;;;;5079779;28;20477;-71
2021/06/23 10:52:26;;;;;;;0.00;0.00;;;;;;;;;;5080001;28;20305;-71
2021/06/23 10:54:54;;;;;;;0.00;0.00;;;;;;;;;;5070679;28;20402;-71
2021/06/23 10:57:24;;;;;;;0.00;0.00;;;;;;;;;;5070797;28;20221;-70
2021/06/23 10:59:52;;;;;;;0.00;0.00;;;;;;;;;;5080089;28;20253;-70
2021/06/23 11:02:27;;;;;;;0.00;0.00;;;;;;;;;;5080578;28;20297;-70
2021/06/23 11:05:05;;;;;;;0.10;0.10;;;;;;;;;;5077361;28;20253;-70
2021/06/23 11:07:34;;;;;;;0.00;0.00;;;;;;;;;;5076328;28;20206;-70
2021/06/23 11:10:16;;;;;;;0.10;0.10;;;;;;;;;;5082109;28;20526;-69
2021/06/23 11:12:45;;;;;;;0.00;0.00;;;;;;;;;;5080897;28;20213;-69
2021/06/23 11:15:13;;;;;;;0.00;0.00;;;;;;;;;;5080128;28;20210;-69
2021/06/23 11:17:40;;;;;;;0.10;0.10;;;;;;;;;;5079034;28;20230;-69
2021/06/23 11:20:27;;;;;;;0.00;0.00;;;;;;;;;;5083473;28;20260;-69
2021/06/23 11:22:55;;;;;;;0.10;0.10;;;;;;;;;;5080485;28;20526;-69
2021/06/23 11:25:22;;;;;;;0.10;0.10;;;;;;;;;;5082992;28;20229;-70
2021/06/23 11:28:06;;;;;;;0.00;0.00;;;;;;;;;;5081556;28;20201;-69
2021/06/23 11:30:34;;;;;;;0.00;0.00;;;;;;;;;;5081965;28;20200;-69
2021/06/23 11:33:23;;;;;;;0.00;0.00;;;;;;;;;;5077932;28;20208;-68
2021/06/23 11:35:50;;;;;;;0.00;0.00;;;;;;;;;;5078358;28;20211;-68
2021/06/23 11:38:17;;;;;;;0.00;0.00;;;;;;;;;;5078145;28;20210;-70
2021/06/23 11:40:43;;;;;;;0.00;0.00;;;;;;;;;;5083772;28;20242;-69
2021/06/23 11:43:09;;;;;;;0.00;0.00;;;;;;;;;;5081035;28;20296;-69
2021/06/23 11:45:36;;;;;;;0.00;0.00;;;;;;;;;;5079059;28;20504;-69
2021/06/23 11:48:02;;;;;;;0.10;0.10;;;;;;;;;;5080844;28;20390;-69
2021/06/23 11:50:28;;;;;;;0.10;0.10;;;;;;;;;;5082542;28;20361;-69
2021/06/23 11:52:56;;;;;;;0.10;0.10;;;;;;;;;;5082635;28;20385;-69
2021/06/23 11:55:25;;;;;;;0.00;0.00;;;;;;;;;;5082708;28;20238;-69
2021/06/23 11:57:52;;;;;;;0.00;0.00;;;;;;;;;;5079439;28;20208;-69
2021/06/23 12:00:18;;;;;;;0.00;0.00;;;;;;;;;;5080690;28;20203;-70
2021/06/23 12:02:45;;;;;;;0.00;0.00;;;;;;;;;;5082988;28;20243;-69
2021/06/23 12:05:11;;;;;;;0.00;0.00;;;;;;;;;;5077026;28;20230;-69
2021/06/23 12:07:38;;;;;;;0.05;0.05;;;;;;;;;;5079071;28;20272;-69
2021/06/23 12:10:06;;;;;;;0.00;0.00;;;;;;;;;;5080973;28;20521;-69
2021/06/23 12:12:33;;;;;;;0.00;0.00;;;;;;;;;;5082077;28;20213;-69
2021/06/23 12:14:59;;;;;;;0.00;0.00;;;;;;;;;;5080188;28;20200;-69
2021/06/23 12:17:26;;;;;;;0.10;0.10;;;;;;;;;;5080765;28;20205;-70
2021/06/23 12:19:53;;;;;;;0.00;0.00;;;;;;;;;;5079056;28;20214;-70
2021/06/23 12:22:19;;;;;;;0.00;0.00;;;;;;;;;;5079001;28;20220;-69
2021/06/23 12:24:46;;;;;;;0.00;0.00;;;;;;;;;;5082245;28;20258;-70
2021/06/23 12:27:13;;;;;;;0.10;0.10;;;;;;;;;;5077692;28;20210;-69
2021/06/23 12:29:40;;;;;;;0.08;0.08;;;;;;;;;;5079583;28;20331;-69
2021/06/23 12:32:06;;;;;;;0.10;0.10;;;;;;;;;;5075299;28;20210;-69
2021/06/23 12:34:32;;;;;;;0.10;0.10;;;;;;;;;;5079270;28;20208;-69
2021/06/23 12:36:59;;;;;;;0.00;0.00;;;;;;;;;;5077007;28;20529;-70
2021/06/23 12:39:26;;;;;;;0.00;0.00;;;;;;;;;;5077189;28;20246;-69
2021/06/23 12:41:52;;;;;;;0.00;0.00;;;;;;;;;;5080929;28;20214;-70
2021/06/23 12:44:20;;;;;;;0.10;0.10;;;;;;;;;;5078881;28;20226;-69
2021/06/23 12:46:46;;;;;;;0.00;0.00;;;;;;;;;;5080205;28;20209;-69
2021/06/23 12:49:12;;;;;;;0.05;0.05;;;;;;;;;;5081261;28;20298;-70
2021/06/23 12:51:39;;;;;;;0.10;0.10;;;;;;;;;;5077241;28;20236;-70
2021/06/23 12:54:05;;;;;;;0.10;0.10;;;;;;;;;;5076875;28;20217;-69
2021/06/23 12:56:32;;;;;;;0.08;0.08;;;;;;;;;;5078565;28;20241;-69
2021/06/23 12:58:58;;;;;;;0.10;0.10;;;;;;;;;;5078828;28;20210;-69
2021/06/23 13:01:26;;;;;;;0.00;0.00;;;;;;;;;;5079281;28;20213;-69
2021/06/23 13:03:52;;;;;;;0.00;0.00;;;;;;;;;;5080824;28;20237;-69
2021/06/23 13:06:18;;;;;;;0.10;0.10;;;;;;;;;;5079467;28;20201;-69
2021/06/23 13:08:44;;;;;;;0.00;0.00;;;;;;;;;;5077833;28;20204;-68
2021/06/23 13:11:12;;;;;;;0.00;0.00;;;;;;;;;;5078289;28;20426;-68
2021/06/23 13:13:40;;;;;;;0.00;0.00;;;;;;;;;;5065632;28;20229;-69
2021/06/23 13:16:06;;;;;;;0.00;0.00;;;;;;;;;;5074230;28;20238;-68
2021/06/23 13:18:34;;;;;;;0.00;0.00;;;;;;;;;;5078002;28;20207;-68
2021/06/23 13:21:00;;;;;;;0.00;0.00;;;;;;;;;;5068600;28;20216;-68
2021/06/23 13:23:26;;;;;;;0.00;0.00;;;;;;;;;;5077895;28;20213;-68
2021/06/23 13:25:53;;;;;;;0.03;0.03;;;;;;;;;;5082027;28;20398;-69
2021/06/23 13:28:20;;;;;;;0.00;0.00;;;;;;;;;;5079211;28;20207;-69
2021/06/23 13:30:46;;;;;;;0.00;0.00;;;;;;;;;;5074522;28;20360;-69
2021/06/23 13:33:13;;;;;;;0.10;0.10;;;;;;;;;;5077698;28;20196;-70
2021/06/23 13:35:40;;;;;;;0.00;0.00;;;;;;;;;;5068992;28;20206;-70
2021/06/23 13:38:06;;;;;;;0.08;0.08;;;;;;;;;;5078033;28;20205;-69
2021/06/23 13:40:33;;;;;;;0.00;0.00;;;;;;;;;;5078025;28;20219;-69
2021/06/23 13:42:59;;;;;;;0.00;0.00;;;;;;;;;;5069724;28;20242;-69
2021/06/23 13:45:25;;;;;;;0.10;0.10;;;;;;;;;;5071781;28;20233;-70
2021/06/23 13:47:51;;;;;;;0.00;0.00;;;;;;;;;;5077092;28;20354;-70
2021/06/23 13:50:18;;;;;;;0.00;0.00;;;;;;;;;;5075808;28;20234;-70
2021/06/23 13:52:47;;;;;;;0.00;0.00;;;;;;;;;;5063248;28;20202;-69
2021/06/23 13:55:15;;;;;;;0.10;0.10;;;;;;;;;;5070888;28;20208;-71
2021/06/23 13:57:41;;;;;;;0.10;0.10;;;;;;;;;;5076827;28;20302;-69
2021/06/23 14:00:08;;;;;;;0.00;0.00;;;;;;;;;;5069401;28;20201;-69
2021/06/23 14:02:35;;;;;;;0.10;0.10;;;;;;;;;;5068673;28;20209;-70
2021/06/23 14:05:01;;;;;;;0.03;0.03;;;;;;;;;;5082221;28;20260;-70
2021/06/23 14:07:27;;;;;;;0.00;0.00;;;;;;;;;;5081952;28;20208;-69
2021/06/23 14:09:55;;;;;;;0.00;0.00;;;;;;;;;;5079100;28;20208;-69
2021/06/23 14:12:21;;;;;;;0.03;0.03;;;;;;;;;;5078327;28;20245;-70
2021/06/23 14:14:48;;;;;;;0.10;0.10;;;;;;;;;;5072075;28;20216;-69
2021/06/23 14:17:14;;;;;;;0.10;0.10;;;;;;;;;;5085929;28;20247;-70
2021/06/23 14:19:40;;;;;;;0.10;0.10;;;;;;;;;;5086294;28;20201;-70
2021/06/23 14:22:07;;;;;;;0.00;0.00;;;;;;;;;;5086039;28;20211;-70
2021/06/23 14:24:34;;;;;;;0.00;0.00;;;;;;;;;;5086625;28;20407;-70
2021/06/23 14:27:01;;;;;;;0.08;0.08;;;;;;;;;;5085750;28;20514;-70
2021/06/23 14:29:27;;;;;;;0.08;0.08;;;;;;;;;;5086353;28;20217;-70
2021/06/23 14:31:54;;;;;;;0.10;0.10;;;;;;;;;;5084241;28;20223;-70
2021/06/23 14:34:20;;;;;;;0.10;0.10;;;;;;;;;;5084654;28;20205;-70
2021/06/23 14:36:46;;;;;;;0.10;0.10;;;;;;;;;;5080289;28;20495;-70
2021/06/23 14:39:12;;;;;;;0.10;0.10;;;;;;;;;;5074984;28;20634;-70
2021/06/23 14:41:38;;;;;;;0.10;0.10;;;;;;;;;;5085476;28;20253;-70
2021/06/23 14:44:06;;;;;;;0.00;0.00;;;;;;;;;;5078004;28;20199;-70
2021/06/23 14:46:34;;;;;;;0.00;0.00;;;;;;;;;;5076894;28;20277;-71
2021/06/23 14:49:01;;;;;;;0.00;0.00;;;;;;;;;;5077962;28;20209;-70
2021/06/23 14:51:27;;;;;;;0.10;0.10;;;;;;;;;;5077563;28;20256;-70
2021/06/23 14:53:53;;;;;;;0.00;0.00;;;;;;;;;;5082534;28;20202;-70
2021/06/23 14:56:20;;;;;;;0.30;0.30;;;;;;;;;;5079236;28;20257;-69
2021/06/23 14:58:46;;;;;;;0.00;0.00;;;;;;;;;;5073910;28;20204;-70